createdAt,value
2023-04-16T00:00:30.099Z,6.55
2023-04-16T00:02:57.470Z,8.32
2023-04-16T00:05:24.853Z,9.93
2023-04-16T00:07:52.899Z,9.20
2023-04-16T00:10:20.491Z,8.15
2023-04-16T00:12:47.701Z,7.20
2023-04-16T00:15:14.976Z,8.88
2023-04-16T00:17:42.204Z,8.63
2023-04-16T00:20:09.624Z,7.10
2023-04-16T00:22:36.833Z,7.85
2023-04-16T00:25:04.353Z,6.82
2023-04-16T00:27:33.828Z,8.57
2023-04-16T00:30:01.083Z,8.38
2023-04-16T00:32:31.710Z,9.02
2023-04-16T00:34:58.916Z,5.63
2023-04-16T00:37:26.076Z,6.85
2023-04-16T00:39:53.220Z,7.45
2023-04-16T00:42:20.498Z,7.93
2023-04-16T00:44:47.671Z,7.45
2023-04-16T00:47:14.742Z,5.93
2023-04-16T00:49:42.130Z,7.90
2023-04-16T00:52:09.644Z,8.05
2023-04-16T00:54:36.887Z,7.13
2023-04-16T00:57:04.641Z,6.07
2023-04-16T00:59:31.765Z,5.18
2023-04-16T01:01:59.063Z,8.70
2023-04-16T01:04:26.641Z,9.20
2023-04-16T01:06:54.138Z,5.72
2023-04-16T01:09:21.662Z,7.72
2023-04-16T01:11:49.856Z,7.35
2023-04-16T01:14:16.993Z,7.15
2023-04-16T01:16:44.171Z,8.68
2023-04-16T01:19:11.819Z,9.20
2023-04-16T01:21:39.287Z,9.65
2023-04-16T01:24:06.697Z,10.30
2023-04-16T01:26:34.058Z,9.43
2023-04-16T01:29:01.275Z,10.55
2023-04-16T01:31:28.570Z,10.98
2023-04-16T01:34:06.179Z,8.90
2023-04-16T01:36:35.064Z,9.98
2023-04-16T01:39:02.405Z,10.18
2023-04-16T01:41:29.761Z,11.55
2023-04-16T01:43:57.035Z,10.77
2023-04-16T01:46:30.467Z,8.98
2023-04-16T01:48:58.289Z,13.13
2023-04-16T01:51:25.662Z,11.52
2023-04-16T01:53:52.835Z,10.77
2023-04-16T01:56:20.220Z,8.55
2023-04-16T01:58:47.691Z,9.73
2023-04-16T02:01:16.818Z,11.15
2023-04-16T02:03:45.545Z,8.40
2023-04-16T02:06:12.957Z,9.60
2023-04-16T02:08:40.927Z,9.75
2023-04-16T02:11:08.434Z,11.75
2023-04-16T02:13:36.171Z,10.32
2023-04-16T02:16:03.595Z,11.10
2023-04-16T02:18:48.053Z,12.15
2023-04-16T02:21:17.347Z,13.05
2023-04-16T02:23:47.767Z,11.43
2023-04-16T02:26:15.493Z,14.63
2023-04-16T02:28:43.672Z,12.52
2023-04-16T02:31:12.173Z,11.15
2023-04-16T02:33:43.940Z,11.25
2023-04-16T02:36:11.272Z,14.65
2023-04-16T02:38:38.720Z,12.15
2023-04-16T02:41:06.752Z,14.88
2023-04-16T02:43:34.732Z,12.75
2023-04-16T02:46:02.526Z,14.82
2023-04-16T02:48:29.751Z,13.45
2023-04-16T02:50:56.946Z,13.55
2023-04-16T02:53:24.428Z,12.80
2023-04-16T02:55:55.460Z,12.48
2023-04-16T02:58:24.145Z,12.68
2023-04-16T03:00:51.713Z,15.73
2023-04-16T03:03:19.265Z,13.63
2023-04-16T03:05:46.710Z,13.32
2023-04-16T03:08:14.301Z,13.68
2023-04-16T03:10:41.756Z,14.27
2023-04-16T03:13:09.134Z,19.13
2023-04-16T03:15:36.372Z,14.40
2023-04-16T03:18:04.094Z,13.82
2023-04-16T03:20:31.870Z,13.30
2023-04-16T03:22:59.228Z,17.05
2023-04-16T03:25:26.512Z,14.02
2023-04-16T03:27:53.896Z,18.75
2023-04-16T03:30:21.174Z,15.95
2023-04-16T03:32:48.368Z,14.25
2023-04-16T03:35:16.484Z,20.17
2023-04-16T03:37:43.852Z,18.80
2023-04-16T03:40:11.381Z,17.67
2023-04-16T03:42:38.752Z,16.15
2023-04-16T03:45:06.544Z,17.00
2023-04-16T03:47:33.801Z,14.98
2023-04-16T03:50:03.687Z,15.93
2023-04-16T03:52:30.965Z,15.77
2023-04-16T03:54:58.192Z,14.20
2023-04-16T03:57:28.295Z,15.52
2023-04-16T04:00:01.010Z,16.90
2023-04-16T04:02:30.780Z,17.77
2023-04-16T04:04:58.108Z,15.32
2023-04-16T04:07:25.322Z,20.45
2023-04-16T04:09:53.137Z,17.15
2023-04-16T04:12:20.931Z,19.33
2023-04-16T04:14:48.459Z,18.23
2023-04-16T04:17:15.600Z,16.52
2023-04-16T04:19:54.244Z,16.05
2023-04-16T04:22:28.104Z,17.70
2023-04-16T04:24:55.640Z,15.40
2023-04-16T04:27:23.254Z,17.35
2023-04-16T04:29:50.793Z,17.67
2023-04-16T04:32:18.201Z,18.73
2023-04-16T04:34:47.643Z,19.98
2023-04-16T04:37:16.070Z,18.77
2023-04-16T04:39:44.592Z,19.40
2023-04-16T04:42:13.095Z,16.70
2023-04-16T04:44:40.540Z,20.95
2023-04-16T04:47:08.973Z,17.13
2023-04-16T04:49:36.351Z,18.90
2023-04-16T04:52:03.776Z,18.15
2023-04-16T04:54:32.774Z,19.35
2023-04-16T04:57:00.276Z,19.73
2023-04-16T04:59:29.047Z,22.38
2023-04-16T05:01:56.368Z,20.63
2023-04-16T05:04:23.577Z,23.90
2023-04-16T05:06:51.007Z,20.77
2023-04-16T05:09:18.304Z,21.27
2023-04-16T05:11:45.445Z,16.88
2023-04-16T05:14:12.636Z,21.13
2023-04-16T05:16:39.798Z,16.60
2023-04-16T05:19:07.072Z,19.83
2023-04-16T05:21:34.205Z,20.02
2023-04-16T05:24:01.307Z,23.35
2023-04-16T05:26:28.411Z,19.33
2023-04-16T05:28:55.865Z,20.42
2023-04-16T05:31:23.186Z,20.77
2023-04-16T05:33:50.490Z,17.65
2023-04-16T05:36:17.638Z,19.23
2023-04-16T05:38:44.786Z,22.77
2023-04-16T05:41:11.937Z,19.50
2023-04-16T05:43:39.125Z,22.10
2023-04-16T05:46:06.358Z,21.13
2023-04-16T05:48:33.464Z,19.38
2023-04-16T05:51:02.373Z,20.83
2023-04-16T05:53:29.663Z,20.85
2023-04-16T05:55:56.984Z,22.67
2023-04-16T05:58:24.130Z,26.70
2023-04-16T06:00:51.686Z,26.20
2023-04-16T06:03:19.151Z,24.00
2023-04-16T06:05:46.413Z,21.00
2023-04-16T06:08:13.943Z,23.27
2023-04-16T06:10:41.192Z,26.83
2023-04-16T06:13:08.323Z,25.48
2023-04-16T06:15:35.574Z,24.08
2023-04-16T06:18:02.919Z,24.48
2023-04-16T06:20:30.384Z,20.08
2023-04-16T06:23:00.400Z,23.02
2023-04-16T06:25:27.611Z,25.80
2023-04-16T06:27:54.862Z,19.77
2023-04-16T06:30:22.001Z,23.65
2023-04-16T06:32:50.503Z,21.90
2023-04-16T06:35:20.428Z,21.05
2023-04-16T06:37:47.714Z,22.77
2023-04-16T06:40:14.843Z,22.52
2023-04-16T06:42:45.330Z,23.27
2023-04-16T06:45:13.011Z,21.30
2023-04-16T06:47:40.656Z,18.15
2023-04-16T06:50:08.190Z,20.15
2023-04-16T06:52:35.420Z,17.77
2023-04-16T06:55:02.717Z,20.77
2023-04-16T06:57:29.993Z,21.63
2023-04-16T06:59:57.314Z,20.52
2023-04-16T07:02:24.998Z,22.45
2023-04-16T07:04:52.485Z,24.55
2023-04-16T07:07:19.794Z,17.30
2023-04-16T07:09:46.905Z,20.73
2023-04-16T07:12:14.357Z,19.48
2023-04-16T07:14:42.090Z,22.08
2023-04-16T07:17:09.312Z,26.00
2023-04-16T07:19:37.153Z,24.13
2023-04-16T07:22:04.710Z,21.70
2023-04-16T07:24:32.367Z,20.35
2023-04-16T07:26:59.609Z,22.40
2023-04-16T07:29:30.166Z,24.15
2023-04-16T07:31:58.042Z,24.77
2023-04-16T07:34:25.260Z,22.42
2023-04-16T07:36:52.386Z,22.88
2023-04-16T07:39:19.479Z,19.70
2023-04-16T07:41:46.703Z,18.40
2023-04-16T07:44:13.988Z,19.77
2023-04-16T07:46:46.839Z,16.98
2023-04-16T07:49:14.818Z,15.40
2023-04-16T07:51:41.975Z,17.98
2023-04-16T07:54:09.399Z,17.23
2023-04-16T07:56:36.732Z,15.60
2023-04-16T07:59:18.529Z,15.65
2023-04-16T08:01:50.058Z,15.30
2023-04-16T08:04:23.466Z,16.17
2023-04-16T08:06:51.519Z,13.10
2023-04-16T08:09:19.686Z,13.88
2023-04-16T08:11:47.136Z,12.98
2023-04-16T08:14:14.229Z,13.60
2023-04-16T08:16:42.009Z,14.35
2023-04-16T08:19:09.661Z,13.90
2023-04-16T08:21:37.059Z,11.95
2023-04-16T08:24:04.478Z,14.40
2023-04-16T08:26:31.546Z,13.55
2023-04-16T08:28:58.842Z,14.55
2023-04-16T08:31:26.218Z,11.75
2023-04-16T08:33:53.532Z,11.60
2023-04-16T08:36:20.852Z,13.27
2023-04-16T08:38:48.294Z,11.48
2023-04-16T08:41:15.696Z,10.95
2023-04-16T08:43:45.119Z,11.45
2023-04-16T08:46:13.162Z,12.88
2023-04-16T08:48:43.332Z,13.73
2023-04-16T08:51:11.935Z,11.40
2023-04-16T08:54:02.120Z,12.32
2023-04-16T08:56:29.553Z,11.75
2023-04-16T08:58:58.455Z,12.85
2023-04-16T09:01:26.927Z,12.45
2023-04-16T09:03:54.848Z,11.10
2023-04-16T09:06:22.352Z,13.07
2023-04-16T09:08:49.954Z,13.57
2023-04-16T09:11:20.661Z,13.57
2023-04-16T09:13:48.153Z,11.32
2023-04-16T09:16:15.591Z,11.88
2023-04-16T09:18:42.851Z,10.18
2023-04-16T09:21:11.351Z,11.45
2023-04-16T09:23:40.291Z,9.45
2023-04-16T09:26:07.675Z,9.73
2023-04-16T09:28:44.157Z,9.93
2023-04-16T09:33:38.930Z,9.85
2023-04-16T09:36:07.750Z,10.77
2023-04-16T09:38:48.194Z,11.20
2023-04-16T09:41:18.980Z,11.05
2023-04-16T09:44:04.211Z,13.15
2023-04-16T09:46:39.818Z,10.60
2023-04-16T09:49:10.966Z,10.77
2023-04-16T09:51:39.133Z,14.35
2023-04-16T09:54:06.875Z,10.50
2023-04-16T09:56:35.625Z,10.95
2023-04-16T09:59:03.261Z,15.88
2023-04-16T10:01:31.293Z,11.30
2023-04-16T10:04:00.433Z,11.43
2023-04-16T10:06:30.020Z,12.27
2023-04-16T10:08:57.497Z,13.02
2023-04-16T10:11:25.167Z,15.00
2023-04-16T10:13:52.405Z,14.02
2023-04-16T10:16:19.713Z,14.38
2023-04-16T10:18:47.622Z,12.32
2023-04-16T10:21:16.326Z,16.27
2023-04-16T10:23:44.364Z,15.93
2023-04-16T10:26:11.826Z,16.08
2023-04-16T10:28:39.812Z,13.90
2023-04-16T10:31:08.759Z,15.90
2023-04-16T10:33:37.228Z,16.48
2023-04-16T10:36:12.843Z,11.88
2023-04-16T10:38:46.547Z,17.15
2023-04-16T10:41:14.070Z,15.73
2023-04-16T10:43:43.690Z,16.23
2023-04-16T10:46:21.038Z,18.27
2023-04-16T10:48:50.669Z,16.77
2023-04-16T10:51:26.705Z,17.70
2023-04-16T10:53:55.308Z,19.77
2023-04-16T10:56:27.101Z,19.90
2023-04-16T10:58:57.319Z,20.90
2023-04-16T11:03:52.869Z,20.15
2023-04-16T11:06:27.086Z,21.23
2023-04-16T11:08:55.457Z,17.58
2023-04-16T11:11:22.904Z,21.58
2023-04-16T11:13:50.160Z,22.65
2023-04-16T11:16:17.703Z,22.58
2023-04-16T11:18:51.159Z,19.30
2023-04-16T11:21:19.006Z,22.23
2023-04-16T11:23:47.476Z,17.90
2023-04-16T11:26:41.156Z,19.25
2023-04-16T11:29:15.683Z,17.75
2023-04-16T11:31:43.031Z,17.13
2023-04-16T11:34:10.196Z,16.27
2023-04-16T11:36:51.306Z,16.08
2023-04-16T11:39:18.904Z,17.33
2023-04-16T11:41:52.314Z,14.85
2023-04-16T11:44:20.695Z,14.30
2023-04-16T11:46:49.392Z,15.40
2023-04-16T11:49:19.718Z,17.63
2023-04-16T11:54:21.472Z,15.55
2023-04-16T11:56:49.568Z,17.63
2023-04-16T11:59:21.236Z,16.80
2023-04-16T12:01:49.976Z,16.45
2023-04-16T12:04:19.533Z,16.23
2023-04-16T12:07:05.139Z,15.57
2023-04-16T12:09:32.316Z,15.10
2023-04-16T12:11:59.654Z,14.40
2023-04-16T12:14:26.920Z,14.35
2023-04-16T12:16:55.868Z,17.10
2023-04-16T12:19:23.074Z,17.73
2023-04-16T12:21:51.309Z,16.08
2023-04-16T12:24:24.517Z,16.35
2023-04-16T12:27:03.148Z,19.08
2023-04-16T12:29:31.911Z,17.67
2023-04-16T12:31:59.108Z,18.67
2023-04-16T12:34:47.979Z,19.27
2023-04-16T12:37:14.985Z,19.50
2023-04-16T12:39:42.771Z,18.67
2023-04-16T12:42:11.300Z,16.33
2023-04-16T12:44:38.804Z,17.92
2023-04-16T12:47:08.168Z,15.88
2023-04-16T12:49:36.490Z,18.38
2023-04-16T12:52:03.819Z,17.77
2023-04-16T12:54:31.419Z,17.25
2023-04-16T12:56:58.608Z,18.63
2023-04-16T12:59:25.871Z,16.27
2023-04-16T13:01:53.119Z,16.55
2023-04-16T13:04:21.552Z,16.98
2023-04-16T13:06:50.749Z,21.63
2023-04-16T13:09:19.405Z,15.93
2023-04-16T13:11:46.822Z,15.98
2023-04-16T13:14:13.969Z,16.90
2023-04-16T13:16:41.158Z,19.08
2023-04-16T13:19:08.969Z,19.40
2023-04-16T13:21:36.430Z,20.20
2023-04-16T13:24:03.803Z,18.83
2023-04-16T13:26:30.719Z,18.15
2023-04-16T13:28:58.127Z,22.08
2023-04-16T13:31:26.013Z,19.98
2023-04-16T13:33:53.257Z,20.88
2023-04-16T13:36:20.790Z,23.92
2023-04-16T13:38:47.940Z,21.05
2023-04-16T13:41:15.100Z,25.52
2023-04-16T13:43:42.355Z,18.05
2023-04-16T13:46:09.524Z,20.23
2023-04-16T13:48:36.644Z,23.15
2023-04-16T13:51:04.130Z,20.45
2023-04-16T13:53:30.949Z,22.38
2023-04-16T13:55:58.133Z,24.98
2023-04-16T13:58:25.519Z,23.23
2023-04-16T14:00:52.402Z,20.63
2023-04-16T14:03:19.879Z,20.63
2023-04-16T14:05:47.196Z,24.83
2023-04-16T14:08:16.469Z,22.88
2023-04-16T14:10:43.606Z,25.10
2023-04-16T14:13:11.079Z,24.70
2023-04-16T14:15:38.731Z,21.27
2023-04-16T14:18:05.961Z,21.13
2023-04-16T14:20:33.336Z,23.80
2023-04-16T14:23:00.507Z,24.45
2023-04-16T14:25:27.736Z,23.15
2023-04-16T14:27:55.262Z,25.52
2023-04-16T14:30:22.071Z,24.40
2023-04-16T14:32:49.186Z,21.52
2023-04-16T14:35:16.332Z,22.20
2023-04-16T14:37:43.501Z,20.80
2023-04-16T14:40:12.221Z,21.35
2023-04-16T14:42:39.588Z,20.75
2023-04-16T14:45:07.442Z,21.42
2023-04-16T14:47:35.180Z,19.95
2023-04-16T14:50:02.704Z,21.50
2023-04-16T14:52:33.153Z,20.83
2023-04-16T14:55:00.458Z,19.63
2023-04-16T14:57:27.919Z,20.17
2023-04-16T14:59:55.085Z,20.65
2023-04-16T15:02:22.680Z,24.33
2023-04-16T15:04:49.980Z,22.95
2023-04-16T15:07:17.140Z,19.98
2023-04-16T15:09:44.309Z,20.42
2023-04-16T15:12:11.601Z,20.42
2023-04-16T15:14:40.190Z,15.63
2023-04-16T15:17:07.813Z,19.33
2023-04-16T15:19:35.120Z,20.27
2023-04-16T15:22:02.404Z,25.77
2023-04-16T15:24:29.539Z,19.80
2023-04-16T15:26:56.662Z,18.98
2023-04-16T15:29:23.848Z,18.38
2023-04-16T15:31:50.857Z,20.58
2023-04-16T15:34:17.892Z,18.02
2023-04-16T15:36:46.614Z,22.38
2023-04-16T15:39:14.027Z,20.58
2023-04-16T15:41:53.715Z,19.90
2023-04-16T15:44:27.556Z,18.30
2023-04-16T15:46:54.810Z,17.52
2023-04-16T15:49:24.524Z,21.33
2023-04-16T15:51:52.071Z,19.08
2023-04-16T15:54:19.392Z,18.90
2023-04-16T15:56:46.828Z,15.90
2023-04-16T15:59:14.162Z,19.67
2023-04-16T16:01:41.574Z,21.20
2023-04-16T16:04:09.334Z,19.02
2023-04-16T16:06:38.159Z,22.05
2023-04-16T16:09:05.092Z,19.42
2023-04-16T16:11:32.676Z,21.58
2023-04-16T16:14:02.816Z,18.02
2023-04-16T16:16:31.050Z,17.05
2023-04-16T16:18:58.238Z,20.00
2023-04-16T16:21:26.213Z,23.90
2023-04-16T16:23:53.429Z,19.85
2023-04-16T16:26:22.934Z,20.17
2023-04-16T16:28:50.316Z,19.88
2023-04-16T16:31:17.571Z,21.45
2023-04-16T16:33:44.715Z,21.13
2023-04-16T16:36:12.164Z,24.55
2023-04-16T16:38:42.798Z,19.85
2023-04-16T16:41:09.984Z,20.48
2023-04-16T16:43:37.187Z,19.83
2023-04-16T16:46:05.738Z,24.98
2023-04-16T16:48:32.946Z,21.80
2023-04-16T16:51:00.596Z,22.73
2023-04-16T16:53:27.820Z,27.30
2023-04-16T16:55:54.996Z,23.30
2023-04-16T16:58:22.132Z,24.83
2023-04-16T17:00:49.320Z,24.95
2023-04-16T17:03:17.111Z,25.73
2023-04-16T17:05:44.511Z,24.17
2023-04-16T17:08:11.963Z,24.90
2023-04-16T17:10:39.056Z,25.70
2023-04-16T17:13:06.726Z,29.25
2023-04-16T17:15:33.984Z,23.27
2023-04-16T17:18:01.365Z,24.35
2023-04-16T17:20:28.675Z,28.00
2023-04-16T17:22:55.863Z,27.48
2023-04-16T17:25:22.988Z,22.17
2023-04-16T17:27:50.205Z,22.77
2023-04-16T17:30:17.488Z,23.23
2023-04-16T17:32:44.813Z,23.65
2023-04-16T17:35:13.708Z,21.95
2023-04-16T17:37:40.858Z,22.20
2023-04-16T17:40:08.235Z,24.60
2023-04-16T17:42:36.145Z,22.55
2023-04-16T17:45:03.487Z,25.50
2023-04-16T17:47:30.890Z,26.75
2023-04-16T17:49:58.371Z,20.85
2023-04-16T17:52:25.773Z,29.35
2023-04-16T17:54:56.681Z,26.63
2023-04-16T17:57:24.031Z,27.02
2023-04-16T17:59:51.640Z,24.30
2023-04-16T18:02:19.559Z,26.30
2023-04-16T18:04:47.137Z,20.95
2023-04-16T18:07:14.591Z,23.42
2023-04-16T18:09:42.340Z,23.20
2023-04-16T18:12:09.550Z,23.08
2023-04-16T18:14:37.270Z,23.55
2023-04-16T18:17:06.334Z,27.98
2023-04-16T18:19:35.455Z,27.75
2023-04-16T18:22:03.090Z,26.23
2023-04-16T18:24:30.324Z,25.65
2023-04-16T18:26:57.489Z,28.73
2023-04-16T18:29:25.477Z,24.10
2023-04-16T18:31:52.792Z,26.67
2023-04-16T18:34:20.792Z,22.67
2023-04-16T18:36:48.027Z,22.95
2023-04-16T18:39:16.181Z,25.95
2023-04-16T18:41:43.804Z,26.38
2023-04-16T18:44:11.179Z,30.48
2023-04-16T18:46:38.312Z,26.48
2023-04-16T18:49:05.533Z,26.38
2023-04-16T18:51:32.927Z,27.90
2023-04-16T18:54:00.229Z,27.02
2023-04-16T18:56:29.779Z,26.65
2023-04-16T18:58:56.933Z,28.23
2023-04-16T19:01:25.548Z,26.30
2023-04-16T19:03:52.858Z,29.75
2023-04-16T19:06:20.056Z,32.70
2023-04-16T19:08:47.499Z,29.88
2023-04-16T19:11:14.756Z,24.92
2023-04-16T19:13:41.869Z,27.67
2023-04-16T19:16:11.573Z,27.25
2023-04-16T19:18:39.555Z,27.05
2023-04-16T19:21:09.523Z,29.52
2023-04-16T19:23:36.812Z,32.72
2023-04-16T19:26:04.097Z,34.08
2023-04-16T19:28:31.235Z,29.35
2023-04-16T19:30:58.366Z,29.33
2023-04-16T19:33:25.687Z,31.45
2023-04-16T19:35:53.060Z,26.52
2023-04-16T19:38:22.490Z,29.92
2023-04-16T19:40:49.916Z,30.13
2023-04-16T19:43:17.115Z,29.45
2023-04-16T19:45:47.992Z,30.30
2023-04-16T19:48:15.361Z,27.30
2023-04-16T19:50:42.989Z,29.75
2023-04-16T19:53:10.578Z,29.55
2023-04-16T19:55:39.921Z,25.58
2023-04-16T19:58:07.315Z,29.23
2023-04-16T20:00:35.172Z,27.23
2023-04-16T20:03:02.363Z,26.48
2023-04-16T20:05:30.047Z,30.05
2023-04-16T20:07:57.463Z,30.13
2023-04-16T20:10:26.715Z,26.23
2023-04-16T20:12:53.941Z,26.58
2023-04-16T20:15:21.653Z,28.15
2023-04-16T20:17:49.029Z,29.08
2023-04-16T20:20:16.455Z,30.73
2023-04-16T20:22:43.858Z,30.50
2023-04-16T20:25:11.499Z,31.58
2023-04-16T20:27:38.869Z,28.83
2023-04-16T20:30:06.504Z,30.55
2023-04-16T20:32:33.908Z,30.75
2023-04-16T20:35:01.920Z,35.25
2023-04-16T20:37:29.284Z,33.80
2023-04-16T20:39:56.588Z,29.73
2023-04-16T20:42:26.569Z,36.03
2023-04-16T20:44:56.599Z,32.40
2023-04-16T20:47:24.372Z,31.08
2023-04-16T20:49:53.169Z,32.58
2023-04-16T20:52:21.496Z,32.83
2023-04-16T20:54:52.005Z,32.97
2023-04-16T20:57:19.335Z,34.40
2023-04-16T20:59:46.709Z,31.08
2023-04-16T21:02:14.634Z,33.88
2023-04-16T21:04:42.356Z,35.72
2023-04-16T21:07:10.042Z,34.20
2023-04-16T21:09:37.435Z,35.15
2023-04-16T21:12:04.996Z,41.17
2023-04-16T21:14:32.353Z,31.98
2023-04-16T21:16:59.602Z,32.60
2023-04-16T21:19:27.009Z,32.17
2023-04-16T21:21:54.450Z,28.98
2023-04-16T21:24:21.750Z,32.58
2023-04-16T21:26:48.904Z,34.35
2023-04-16T21:29:16.380Z,33.00
2023-04-16T21:31:43.518Z,33.63
2023-04-16T21:34:10.764Z,30.67
2023-04-16T21:36:38.009Z,31.70
2023-04-16T21:39:05.272Z,31.65
2023-04-16T21:41:32.671Z,36.85
2023-04-16T21:44:00.571Z,35.17
2023-04-16T21:46:27.797Z,33.70
2023-04-16T21:48:55.184Z,34.83
2023-04-16T21:51:28.846Z,36.03
2023-04-16T21:53:59.211Z,32.95
2023-04-16T21:58:53.565Z,32.67
2023-04-16T22:01:20.837Z,27.45
2023-04-16T22:03:50.613Z,33.35
2023-04-16T22:06:18.472Z,30.70
2023-04-16T22:08:45.593Z,33.30
2023-04-16T22:11:12.913Z,33.13
2023-04-16T22:13:42.457Z,33.28
2023-04-16T22:16:11.697Z,35.20
2023-04-16T22:18:41.234Z,37.72
2023-04-16T22:21:08.442Z,31.10
2023-04-16T22:23:35.650Z,34.38
2023-04-16T22:26:03.110Z,30.35
2023-04-16T22:28:30.343Z,33.03
2023-04-16T22:30:57.568Z,32.88
2023-04-16T22:33:25.060Z,34.65
2023-04-16T22:35:52.234Z,32.72
2023-04-16T22:38:19.333Z,31.65
2023-04-16T22:40:48.957Z,33.65
2023-04-16T22:43:17.852Z,28.58
2023-04-16T22:45:46.455Z,34.42
2023-04-16T22:48:13.781Z,34.08
2023-04-16T22:50:41.351Z,32.45
2023-04-16T22:53:08.647Z,35.67
2023-04-16T22:55:36.015Z,31.65
2023-04-16T22:58:03.349Z,34.55
2023-04-16T23:00:30.617Z,33.25
2023-04-16T23:02:58.002Z,29.90
2023-04-16T23:05:25.624Z,33.47
2023-04-16T23:07:52.782Z,32.20
2023-04-16T23:10:20.212Z,33.22
2023-04-16T23:12:47.471Z,32.42
2023-04-16T23:15:14.781Z,32.80
2023-04-16T23:17:42.033Z,38.58
2023-04-16T23:20:10.180Z,34.38
2023-04-16T23:22:50.569Z,36.20
2023-04-16T23:25:18.303Z,33.22
2023-04-16T23:27:45.864Z,36.95
2023-04-16T23:30:13.191Z,31.55
2023-04-16T23:32:40.652Z,32.25
2023-04-16T23:35:08.185Z,32.13
2023-04-16T23:37:35.275Z,33.45
2023-04-16T23:40:02.447Z,34.47
2023-04-16T23:42:29.894Z,33.92
2023-04-16T23:44:57.422Z,33.80
2023-04-16T23:47:24.714Z,30.75
2023-04-16T23:49:51.944Z,30.27
2023-04-16T23:52:19.152Z,32.42
2023-04-16T23:54:46.316Z,31.23
2023-04-16T23:57:13.594Z,31.73
2023-04-16T23:59:40.705Z,29.95
